sensor_id;sensor_type;location;lat;lon;timestamp;P1;durP1;ratioP1;P2;durP2;ratioP2
30068;SDS011;16894;49.456;10.644;2023-08-06T00:02:13;32.27;;;30.13;;
30068;SDS011;16894;49.456;10.644;2023-08-06T00:04:39;34.73;;;32.57;;
30068;SDS011;16894;49.456;10.644;2023-08-06T00:07:04;36.60;;;34.27;;
30068;SDS011;16894;49.456;10.644;2023-08-06T00:09:30;38.30;;;36.05;;
30068;SDS011;16894;49.456;10.644;2023-08-06T00:11:56;43.42;;;40.83;;
30068;SDS011;16894;49.456;10.644;2023-08-06T00:14:21;40.40;;;37.90;;
30068;SDS011;16894;49.456;10.644;2023-08-06T00:16:47;38.40;;;36.07;;
30068;SDS011;16894;49.456;10.644;2023-08-06T00:19:12;40.20;;;37.77;;
30068;SDS011;16894;49.456;10.644;2023-08-06T00:21:38;37.73;;;35.50;;
30068;SDS011;16894;49.456;10.644;2023-08-06T00:24:04;36.20;;;33.90;;
30068;SDS011;16894;49.456;10.644;2023-08-06T00:26:29;34.23;;;32.17;;
30068;SDS011;16894;49.456;10.644;2023-08-06T00:28:55;36.67;;;34.23;;
30068;SDS011;16894;49.456;10.644;2023-08-06T00:31:21;35.13;;;32.93;;
30068;SDS011;16894;49.456;10.644;2023-08-06T00:33:47;35.90;;;33.80;;
30068;SDS011;16894;49.456;10.644;2023-08-06T00:36:13;37.20;;;34.97;;
30068;SDS011;16894;49.456;10.644;2023-08-06T00:38:38;37.43;;;35.10;;
30068;SDS011;16894;49.456;10.644;2023-08-06T00:41:04;40.60;;;38.13;;
30068;SDS011;16894;49.456;10.644;2023-08-06T00:43:30;36.50;;;33.87;;
30068;SDS011;16894;49.456;10.644;2023-08-06T00:45:56;50.90;;;47.78;;
30068;SDS011;16894;49.456;10.644;2023-08-06T00:48:21;61.90;;;58.23;;
30068;SDS011;16894;49.456;10.644;2023-08-06T00:50:47;77.07;;;72.30;;
30068;SDS011;16894;49.456;10.644;2023-08-06T00:53:13;105.67;;;99.07;;
30068;SDS011;16894;49.456;10.644;2023-08-06T00:55:39;189.15;;;177.38;;
30068;SDS011;16894;49.456;10.644;2023-08-06T00:58:05;219.88;;;206.40;;
30068;SDS011;16894;49.456;10.644;2023-08-06T01:00:30;173.32;;;162.95;;
30068;SDS011;16894;49.456;10.644;2023-08-06T01:02:56;164.68;;;154.80;;
30068;SDS011;16894;49.456;10.644;2023-08-06T01:05:22;212.50;;;199.70;;
30068;SDS011;16894;49.456;10.644;2023-08-06T01:07:56;233.10;;;217.70;;
30068;SDS011;16894;49.456;10.644;2023-08-06T01:13:42;168.23;;;158.23;;
30068;SDS011;16894;49.456;10.644;2023-08-06T01:16:18;163.43;;;153.43;;
30068;SDS011;16894;49.456;10.644;2023-08-06T01:18:46;202.68;;;190.68;;
30068;SDS011;16894;49.456;10.644;2023-08-06T01:21:14;278.13;;;260.67;;
30068;SDS011;16894;49.456;10.644;2023-08-06T01:23:44;332.02;;;310.38;;
30068;SDS011;16894;49.456;10.644;2023-08-06T01:31:24;341.00;;;319.05;;
30068;SDS011;16894;49.456;10.644;2023-08-06T01:33:55;305.13;;;286.38;;
30068;SDS011;16894;49.456;10.644;2023-08-06T01:36:23;304.25;;;285.30;;
30068;SDS011;16894;49.456;10.644;2023-08-06T01:38:51;351.13;;;328.67;;
30068;SDS011;16894;49.456;10.644;2023-08-06T01:41:18;281.88;;;264.88;;
30068;SDS011;16894;49.456;10.644;2023-08-06T01:43:43;208.98;;;196.52;;
30068;SDS011;16894;49.456;10.644;2023-08-06T01:46:09;179.33;;;168.70;;
30068;SDS011;16894;49.456;10.644;2023-08-06T01:48:35;231.33;;;216.43;;
30068;SDS011;16894;49.456;10.644;2023-08-06T01:51:01;267.83;;;251.52;;
30068;SDS011;16894;49.456;10.644;2023-08-06T01:53:29;330.27;;;309.10;;
30068;SDS011;16894;49.456;10.644;2023-08-06T01:55:54;408.53;;;381.47;;
30068;SDS011;16894;49.456;10.644;2023-08-06T01:58:20;435.77;;;406.97;;
30068;SDS011;16894;49.456;10.644;2023-08-06T02:00:46;475.57;;;443.53;;
30068;SDS011;16894;49.456;10.644;2023-08-06T02:03:11;506.23;;;471.27;;
30068;SDS011;16894;49.456;10.644;2023-08-06T02:05:37;500.63;;;466.07;;
30068;SDS011;16894;49.456;10.644;2023-08-06T02:08:03;505.02;;;469.55;;
30068;SDS011;16894;49.456;10.644;2023-08-06T02:10:28;515.28;;;479.67;;
30068;SDS011;16894;49.456;10.644;2023-08-06T02:12:54;479.70;;;446.73;;
30068;SDS011;16894;49.456;10.644;2023-08-06T02:15:20;491.05;;;457.10;;
30068;SDS011;16894;49.456;10.644;2023-08-06T02:17:45;495.40;;;461.67;;
30068;SDS011;16894;49.456;10.644;2023-08-06T02:20:11;506.00;;;470.00;;
30068;SDS011;16894;49.456;10.644;2023-08-06T02:22:37;496.30;;;461.20;;
30068;SDS011;16894;49.456;10.644;2023-08-06T02:25:04;453.80;;;422.65;;
30068;SDS011;16894;49.456;10.644;2023-08-06T02:27:30;469.73;;;437.55;;
30068;SDS011;16894;49.456;10.644;2023-08-06T02:29:55;441.83;;;411.37;;
30068;SDS011;16894;49.456;10.644;2023-08-06T02:32:21;408.67;;;381.67;;
30068;SDS011;16894;49.456;10.644;2023-08-06T02:34:47;426.40;;;397.50;;
30068;SDS011;16894;49.456;10.644;2023-08-06T02:37:12;428.00;;;398.77;;
30068;SDS011;16894;49.456;10.644;2023-08-06T02:39:38;360.90;;;337.50;;
30068;SDS011;16894;49.456;10.644;2023-08-06T02:42:07;366.55;;;342.80;;
30068;SDS011;16894;49.456;10.644;2023-08-06T02:44:33;351.55;;;329.08;;
30068;SDS011;16894;49.456;10.644;2023-08-06T02:47:00;384.23;;;359.08;;
30068;SDS011;16894;49.456;10.644;2023-08-06T02:49:25;416.15;;;388.67;;
30068;SDS011;16894;49.456;10.644;2023-08-06T02:51:51;330.33;;;309.13;;
30068;SDS011;16894;49.456;10.644;2023-08-06T02:54:17;284.30;;;266.35;;
30068;SDS011;16894;49.456;10.644;2023-08-06T02:56:44;272.10;;;254.52;;
30068;SDS011;16894;49.456;10.644;2023-08-06T02:59:11;245.40;;;229.25;;
30068;SDS011;16894;49.456;10.644;2023-08-06T03:04:03;207.50;;;194.65;;
30068;SDS011;16894;49.456;10.644;2023-08-06T03:06:29;109.22;;;102.50;;
30068;SDS011;16894;49.456;10.644;2023-08-06T03:08:55;90.85;;;84.82;;
30068;SDS011;16894;49.456;10.644;2023-08-06T03:11:22;89.68;;;84.10;;
30068;SDS011;16894;49.456;10.644;2023-08-06T03:13:48;97.83;;;91.90;;
30068;SDS011;16894;49.456;10.644;2023-08-06T03:16:14;112.10;;;105.27;;
30068;SDS011;16894;49.456;10.644;2023-08-06T03:18:39;126.95;;;119.25;;
30068;SDS011;16894;49.456;10.644;2023-08-06T03:21:05;135.13;;;126.93;;
30068;SDS011;16894;49.456;10.644;2023-08-06T03:23:31;127.90;;;120.23;;
30068;SDS011;16894;49.456;10.644;2023-08-06T03:26:00;139.90;;;131.43;;
30068;SDS011;16894;49.456;10.644;2023-08-06T03:28:27;129.02;;;121.18;;
30068;SDS011;16894;49.456;10.644;2023-08-06T03:31:02;150.63;;;141.47;;
30068;SDS011;16894;49.456;10.644;2023-08-06T03:33:29;169.05;;;158.85;;
30068;SDS011;16894;49.456;10.644;2023-08-06T03:35:55;190.50;;;178.93;;
30068;SDS011;16894;49.456;10.644;2023-08-06T03:38:21;197.82;;;185.98;;
30068;SDS011;16894;49.456;10.644;2023-08-06T03:40:48;205.25;;;193.00;;
30068;SDS011;16894;49.456;10.644;2023-08-06T03:43:14;217.35;;;204.38;;
30068;SDS011;16894;49.456;10.644;2023-08-06T03:45:42;249.85;;;235.05;;
30068;SDS011;16894;49.456;10.644;2023-08-06T03:48:08;155.70;;;146.45;;
30068;SDS011;16894;49.456;10.644;2023-08-06T03:50:34;130.00;;;121.90;;
30068;SDS011;16894;49.456;10.644;2023-08-06T03:53:00;135.55;;;127.25;;
30068;SDS011;16894;49.456;10.644;2023-08-06T03:55:26;138.70;;;130.05;;
30068;SDS011;16894;49.456;10.644;2023-08-06T03:57:51;136.25;;;128.10;;
30068;SDS011;16894;49.456;10.644;2023-08-06T04:00:17;149.70;;;140.43;;
30068;SDS011;16894;49.456;10.644;2023-08-06T04:02:43;142.50;;;133.88;;
30068;SDS011;16894;49.456;10.644;2023-08-06T04:05:09;132.03;;;123.97;;
30068;SDS011;16894;49.456;10.644;2023-08-06T04:07:34;130.55;;;122.75;;
30068;SDS011;16894;49.456;10.644;2023-08-06T04:10:02;143.27;;;134.63;;
30068;SDS011;16894;49.456;10.644;2023-08-06T04:12:28;134.80;;;126.65;;
30068;SDS011;16894;49.456;10.644;2023-08-06T04:14:55;134.93;;;126.25;;
30068;SDS011;16894;49.456;10.644;2023-08-06T04:17:22;132.40;;;123.97;;
30068;SDS011;16894;49.456;10.644;2023-08-06T04:19:52;137.05;;;128.70;;
30068;SDS011;16894;49.456;10.644;2023-08-06T04:22:19;149.27;;;139.82;;
30068;SDS011;16894;49.456;10.644;2023-08-06T04:24:46;179.00;;;168.30;;
30068;SDS011;16894;49.456;10.644;2023-08-06T04:27:12;165.63;;;155.60;;
30068;SDS011;16894;49.456;10.644;2023-08-06T04:29:39;156.88;;;147.32;;
30068;SDS011;16894;49.456;10.644;2023-08-06T04:32:07;152.32;;;142.98;;
30068;SDS011;16894;49.456;10.644;2023-08-06T04:34:34;155.02;;;145.52;;
30068;SDS011;16894;49.456;10.644;2023-08-06T04:39:26;157.07;;;147.52;;
30068;SDS011;16894;49.456;10.644;2023-08-06T04:41:52;145.40;;;136.77;;
30068;SDS011;16894;49.456;10.644;2023-08-06T04:44:17;129.23;;;121.20;;
30068;SDS011;16894;49.456;10.644;2023-08-06T04:46:43;127.10;;;119.13;;
30068;SDS011;16894;49.456;10.644;2023-08-06T04:49:09;120.70;;;113.30;;
30068;SDS011;16894;49.456;10.644;2023-08-06T04:51:35;116.33;;;109.40;;
30068;SDS011;16894;49.456;10.644;2023-08-06T04:54:00;108.05;;;101.10;;
30068;SDS011;16894;49.456;10.644;2023-08-06T04:56:26;97.05;;;91.18;;
30068;SDS011;16894;49.456;10.644;2023-08-06T04:58:52;82.68;;;77.55;;
30068;SDS011;16894;49.456;10.644;2023-08-06T05:01:18;80.60;;;75.50;;
30068;SDS011;16894;49.456;10.644;2023-08-06T05:03:43;78.72;;;73.75;;
30068;SDS011;16894;49.456;10.644;2023-08-06T05:06:09;80.23;;;74.97;;
30068;SDS011;16894;49.456;10.644;2023-08-06T05:08:35;79.25;;;74.25;;
30068;SDS011;16894;49.456;10.644;2023-08-06T05:11:01;85.30;;;79.78;;
30068;SDS011;16894;49.456;10.644;2023-08-06T05:13:27;95.30;;;87.97;;
30068;SDS011;16894;49.456;10.644;2023-08-06T05:15:55;90.80;;;84.17;;
30068;SDS011;16894;49.456;10.644;2023-08-06T05:18:21;90.57;;;84.05;;
30068;SDS011;16894;49.456;10.644;2023-08-06T05:20:47;90.00;;;84.43;;
30068;SDS011;16894;49.456;10.644;2023-08-06T05:23:13;87.55;;;82.00;;
30068;SDS011;16894;49.456;10.644;2023-08-06T05:25:39;93.60;;;87.37;;
30068;SDS011;16894;49.456;10.644;2023-08-06T05:28:04;92.63;;;86.70;;
30068;SDS011;16894;49.456;10.644;2023-08-06T05:30:30;129.93;;;117.50;;
30068;SDS011;16894;49.456;10.644;2023-08-06T05:32:56;104.05;;;97.03;;
30068;SDS011;16894;49.456;10.644;2023-08-06T05:35:22;96.70;;;90.47;;
30068;SDS011;16894;49.456;10.644;2023-08-06T05:37:48;86.30;;;80.95;;
30068;SDS011;16894;49.456;10.644;2023-08-06T05:40:15;86.18;;;80.57;;
30068;SDS011;16894;49.456;10.644;2023-08-06T05:42:41;98.47;;;91.77;;
30068;SDS011;16894;49.456;10.644;2023-08-06T05:45:07;98.50;;;91.70;;
30068;SDS011;16894;49.456;10.644;2023-08-06T05:47:33;88.75;;;83.20;;
30068;SDS011;16894;49.456;10.644;2023-08-06T05:49:59;106.80;;;99.17;;
30068;SDS011;16894;49.456;10.644;2023-08-06T05:52:24;118.00;;;110.53;;
30068;SDS011;16894;49.456;10.644;2023-08-06T05:54:50;100.30;;;94.13;;
30068;SDS011;16894;49.456;10.644;2023-08-06T05:57:16;93.82;;;87.75;;
30068;SDS011;16894;49.456;10.644;2023-08-06T05:59:42;101.63;;;94.75;;
30068;SDS011;16894;49.456;10.644;2023-08-06T06:02:08;93.60;;;87.32;;
30068;SDS011;16894;49.456;10.644;2023-08-06T06:04:33;94.03;;;87.77;;
30068;SDS011;16894;49.456;10.644;2023-08-06T06:06:59;118.03;;;110.15;;
30068;SDS011;16894;49.456;10.644;2023-08-06T06:09:25;142.77;;;133.50;;
30068;SDS011;16894;49.456;10.644;2023-08-06T06:11:51;200.50;;;187.67;;
30068;SDS011;16894;49.456;10.644;2023-08-06T06:14:17;229.27;;;214.93;;
30068;SDS011;16894;49.456;10.644;2023-08-06T06:16:43;294.27;;;274.83;;
30068;SDS011;16894;49.456;10.644;2023-08-06T06:19:12;233.05;;;218.23;;
30068;SDS011;16894;49.456;10.644;2023-08-06T06:21:38;241.85;;;226.43;;
30068;SDS011;16894;49.456;10.644;2023-08-06T06:24:05;378.17;;;352.75;;
30068;SDS011;16894;49.456;10.644;2023-08-06T06:26:31;383.40;;;357.58;;
30068;SDS011;16894;49.456;10.644;2023-08-06T06:28:57;550.00;;;509.50;;
30068;SDS011;16894;49.456;10.644;2023-08-06T06:31:23;589.85;;;546.30;;
30068;SDS011;16894;49.456;10.644;2023-08-06T06:33:48;577.47;;;534.93;;
30068;SDS011;16894;49.456;10.644;2023-08-06T06:36:14;574.80;;;533.50;;
30068;SDS011;16894;49.456;10.644;2023-08-06T06:38:40;452.60;;;424.23;;
30068;SDS011;16894;49.456;10.644;2023-08-06T06:41:06;291.27;;;274.15;;
30068;SDS011;16894;49.456;10.644;2023-08-06T06:43:31;214.77;;;201.80;;
30068;SDS011;16894;49.456;10.644;2023-08-06T06:45:57;223.45;;;210.20;;
30068;SDS011;16894;49.456;10.644;2023-08-06T06:50:53;98.07;;;92.28;;
30068;SDS011;16894;49.456;10.644;2023-08-06T06:53:18;49.58;;;46.63;;
30068;SDS011;16894;49.456;10.644;2023-08-06T06:55:44;26.27;;;24.67;;
30068;SDS011;16894;49.456;10.644;2023-08-06T06:58:10;24.38;;;22.88;;
30068;SDS011;16894;49.456;10.644;2023-08-06T07:00:36;27.13;;;25.33;;
30068;SDS011;16894;49.456;10.644;2023-08-06T07:05:28;22.42;;;21.02;;
30068;SDS011;16894;49.456;10.644;2023-08-06T07:07:54;31.95;;;29.92;;
30068;SDS011;16894;49.456;10.644;2023-08-06T07:10:20;30.75;;;28.67;;
30068;SDS011;16894;49.456;10.644;2023-08-06T07:12:45;29.60;;;27.83;;
30068;SDS011;16894;49.456;10.644;2023-08-06T07:15:11;30.30;;;28.40;;
30068;SDS011;16894;49.456;10.644;2023-08-06T07:17:37;33.45;;;31.33;;
30068;SDS011;16894;49.456;10.644;2023-08-06T07:20:03;51.50;;;48.53;;
30068;SDS011;16894;49.456;10.644;2023-08-06T07:24:55;90.90;;;84.65;;
30068;SDS011;16894;49.456;10.644;2023-08-06T07:27:21;65.63;;;61.78;;
30068;SDS011;16894;49.456;10.644;2023-08-06T07:29:47;38.15;;;35.95;;
30068;SDS011;16894;49.456;10.644;2023-08-06T07:32:13;76.72;;;72.30;;
30068;SDS011;16894;49.456;10.644;2023-08-06T07:34:39;56.92;;;53.55;;
30068;SDS011;16894;49.456;10.644;2023-08-06T07:37:05;44.67;;;42.13;;
30068;SDS011;16894;49.456;10.644;2023-08-06T07:39:31;53.53;;;49.85;;
30068;SDS011;16894;49.456;10.644;2023-08-06T07:41:56;32.77;;;30.87;;
30068;SDS011;16894;49.456;10.644;2023-08-06T07:44:22;36.73;;;34.33;;
30068;SDS011;16894;49.456;10.644;2023-08-06T07:46:49;26.63;;;24.88;;
30068;SDS011;16894;49.456;10.644;2023-08-06T07:49:14;35.38;;;33.00;;
30068;SDS011;16894;49.456;10.644;2023-08-06T07:51:40;37.65;;;35.30;;
30068;SDS011;16894;49.456;10.644;2023-08-06T07:54:06;48.53;;;44.42;;
30068;SDS011;16894;49.456;10.644;2023-08-06T07:56:32;27.13;;;25.45;;
30068;SDS011;16894;49.456;10.644;2023-08-06T07:58:58;28.70;;;26.77;;
30068;SDS011;16894;49.456;10.644;2023-08-06T08:01:24;29.43;;;27.50;;
30068;SDS011;16894;49.456;10.644;2023-08-06T08:03:50;35.83;;;33.63;;
30068;SDS011;16894;49.456;10.644;2023-08-06T08:06:15;85.18;;;68.75;;
30068;SDS011;16894;49.456;10.644;2023-08-06T08:08:41;39.95;;;37.65;;
30068;SDS011;16894;49.456;10.644;2023-08-06T08:11:07;54.30;;;51.15;;
30068;SDS011;16894;49.456;10.644;2023-08-06T08:13:33;60.30;;;56.67;;
30068;SDS011;16894;49.456;10.644;2023-08-06T08:15:59;51.77;;;48.83;;
30068;SDS011;16894;49.456;10.644;2023-08-06T08:18:25;61.70;;;57.72;;
30068;SDS011;16894;49.456;10.644;2023-08-06T08:20:51;48.97;;;46.17;;
30068;SDS011;16894;49.456;10.644;2023-08-06T08:23:17;35.63;;;33.50;;
30068;SDS011;16894;49.456;10.644;2023-08-06T08:25:42;32.17;;;30.23;;
30068;SDS011;16894;49.456;10.644;2023-08-06T08:28:08;39.63;;;36.83;;
30068;SDS011;16894;49.456;10.644;2023-08-06T08:30:34;21.93;;;20.60;;
30068;SDS011;16894;49.456;10.644;2023-08-06T08:32:59;26.43;;;24.97;;
30068;SDS011;16894;49.456;10.644;2023-08-06T08:35:25;27.35;;;25.83;;
30068;SDS011;16894;49.456;10.644;2023-08-06T08:37:51;25.40;;;24.00;;
30068;SDS011;16894;49.456;10.644;2023-08-06T08:40:16;39.97;;;37.70;;
30068;SDS011;16894;49.456;10.644;2023-08-06T08:42:42;42.55;;;40.15;;
30068;SDS011;16894;49.456;10.644;2023-08-06T08:45:12;59.90;;;56.47;;
30068;SDS011;16894;49.456;10.644;2023-08-06T08:47:40;74.43;;;70.15;;
30068;SDS011;16894;49.456;10.644;2023-08-06T08:50:08;84.53;;;79.63;;
30068;SDS011;16894;49.456;10.644;2023-08-06T08:52:39;74.05;;;69.75;;
30068;SDS011;16894;49.456;10.644;2023-08-06T08:55:06;71.25;;;67.10;;
30068;SDS011;16894;49.456;10.644;2023-08-06T08:57:33;50.50;;;47.40;;
30068;SDS011;16894;49.456;10.644;2023-08-06T08:59:58;43.88;;;41.38;;
30068;SDS011;16894;49.456;10.644;2023-08-06T09:02:25;26.47;;;24.97;;
30068;SDS011;16894;49.456;10.644;2023-08-06T09:04:55;32.95;;;31.08;;
30068;SDS011;16894;49.456;10.644;2023-08-06T09:07:24;32.80;;;30.83;;
30068;SDS011;16894;49.456;10.644;2023-08-06T09:09:51;34.28;;;32.28;;
30068;SDS011;16894;49.456;10.644;2023-08-06T09:12:18;56.10;;;52.70;;
30068;SDS011;16894;49.456;10.644;2023-08-06T09:14:44;55.70;;;52.30;;
30068;SDS011;16894;49.456;10.644;2023-08-06T09:17:09;48.07;;;45.30;;
30068;SDS011;16894;49.456;10.644;2023-08-06T09:19:41;35.00;;;33.00;;
30068;SDS011;16894;49.456;10.644;2023-08-06T09:22:11;31.63;;;29.83;;
30068;SDS011;16894;49.456;10.644;2023-08-06T09:24:39;26.55;;;24.80;;
30068;SDS011;16894;49.456;10.644;2023-08-06T09:27:11;22.25;;;21.02;;
30068;SDS011;16894;49.456;10.644;2023-08-06T09:29:44;21.00;;;19.80;;
30068;SDS011;16894;49.456;10.644;2023-08-06T09:32:11;34.03;;;30.55;;
30068;SDS011;16894;49.456;10.644;2023-08-06T09:34:43;25.98;;;24.52;;
30068;SDS011;16894;49.456;10.644;2023-08-06T09:37:10;22.88;;;21.58;;
30068;SDS011;16894;49.456;10.644;2023-08-06T09:39:38;28.65;;;27.08;;
30068;SDS011;16894;49.456;10.644;2023-08-06T09:42:05;34.10;;;32.15;;
30068;SDS011;16894;49.456;10.644;2023-08-06T09:44:32;32.38;;;30.52;;
30068;SDS011;16894;49.456;10.644;2023-08-06T09:46:59;55.80;;;52.60;;
30068;SDS011;16894;49.456;10.644;2023-08-06T09:49:27;578.53;;;528.10;;
30068;SDS011;16894;49.456;10.644;2023-08-06T09:52:06;425.52;;;399.10;;
30068;SDS011;16894;49.456;10.644;2023-08-06T09:54:37;359.20;;;336.10;;
30068;SDS011;16894;49.456;10.644;2023-08-06T09:57:03;846.95;;;782.03;;
30068;SDS011;16894;49.456;10.644;2023-08-06T09:59:30;1012.35;;;926.60;;
30068;SDS011;16894;49.456;10.644;2023-08-06T10:01:57;1090.85;;;992.38;;
30068;SDS011;16894;49.456;10.644;2023-08-06T10:04:23;1163.07;;;999.90;;
30068;SDS011;16894;49.456;10.644;2023-08-06T10:06:49;1760.88;;;999.90;;
30068;SDS011;16894;49.456;10.644;2023-08-06T10:09:16;1044.53;;;952.38;;
30068;SDS011;16894;49.456;10.644;2023-08-06T10:11:44;925.60;;;849.25;;
30068;SDS011;16894;49.456;10.644;2023-08-06T10:14:16;925.53;;;851.45;;
30068;SDS011;16894;49.456;10.644;2023-08-06T10:16:55;1233.55;;;999.90;;
30068;SDS011;16894;49.456;10.644;2023-08-06T10:19:22;1700.60;;;999.90;;
30068;SDS011;16894;49.456;10.644;2023-08-06T10:27:28;1999.90;;;999.90;;
30068;SDS011;16894;49.456;10.644;2023-08-06T10:32:49;1999.90;;;999.90;;
30068;SDS011;16894;49.456;10.644;2023-08-06T10:38:24;1947.95;;;999.90;;
30068;SDS011;16894;49.456;10.644;2023-08-06T10:45:56;1847.28;;;999.90;;
30068;SDS011;16894;49.456;10.644;2023-08-06T10:48:39;1999.90;;;999.90;;
30068;SDS011;16894;49.456;10.644;2023-08-06T10:51:07;1994.00;;;999.90;;
30068;SDS011;16894;49.456;10.644;2023-08-06T10:53:35;1999.90;;;999.90;;
30068;SDS011;16894;49.456;10.644;2023-08-06T10:56:01;1999.90;;;999.90;;
30068;SDS011;16894;49.456;10.644;2023-08-06T10:58:33;1999.90;;;999.90;;
30068;SDS011;16894;49.456;10.644;2023-08-06T11:00:59;1999.90;;;999.90;;
30068;SDS011;16894;49.456;10.644;2023-08-06T11:03:26;1999.90;;;943.70;;
30068;SDS011;16894;49.456;10.644;2023-08-06T11:05:52;1857.72;;;999.90;;
30068;SDS011;16894;49.456;10.644;2023-08-06T11:08:27;971.78;;;880.58;;
30068;SDS011;16894;49.456;10.644;2023-08-06T11:10:54;525.70;;;489.42;;
30068;SDS011;16894;49.456;10.644;2023-08-06T11:13:20;212.40;;;199.80;;
30068;SDS011;16894;49.456;10.644;2023-08-06T11:15:47;80.05;;;74.85;;
30068;SDS011;16894;49.456;10.644;2023-08-06T11:18:13;92.88;;;87.45;;
30068;SDS011;16894;49.456;10.644;2023-08-06T11:20:38;266.25;;;250.75;;
30068;SDS011;16894;49.456;10.644;2023-08-06T11:23:06;513.25;;;480.08;;
30068;SDS011;16894;49.456;10.644;2023-08-06T11:25:43;895.47;;;822.78;;
30068;SDS011;16894;49.456;10.644;2023-08-06T11:28:11;1204.28;;;999.90;;
30068;SDS011;16894;49.456;10.644;2023-08-06T11:30:37;1317.03;;;999.90;;
30068;SDS011;16894;49.456;10.644;2023-08-06T11:35:33;737.60;;;678.50;;
30068;SDS011;16894;49.456;10.644;2023-08-06T11:38:00;362.27;;;339.77;;
30068;SDS011;16894;49.456;10.644;2023-08-06T11:40:26;171.52;;;161.25;;
30068;SDS011;16894;49.456;10.644;2023-08-06T11:42:52;70.13;;;65.90;;
30068;SDS011;16894;49.456;10.644;2023-08-06T11:45:21;345.55;;;322.45;;
30068;SDS011;16894;49.456;10.644;2023-08-06T11:47:51;954.80;;;872.70;;
30068;SDS011;16894;49.456;10.644;2023-08-06T11:50:26;1531.45;;;999.90;;
30068;SDS011;16894;49.456;10.644;2023-08-06T11:52:56;1036.22;;;937.03;;
30068;SDS011;16894;49.456;10.644;2023-08-06T11:55:24;1328.43;;;999.90;;
30068;SDS011;16894;49.456;10.644;2023-08-06T11:57:50;1215.79;;;999.14;;
30068;SDS011;16894;49.456;10.644;2023-08-06T12:00:16;1999.90;;;999.90;;
30068;SDS011;16894;49.456;10.644;2023-08-06T12:02:45;1999.90;;;999.90;;
30068;SDS011;16894;49.456;10.644;2023-08-06T12:05:12;1999.90;;;999.90;;
30068;SDS011;16894;49.456;10.644;2023-08-06T12:07:40;1999.90;;;999.90;;
30068;SDS011;16894;49.456;10.644;2023-08-06T12:10:07;1999.90;;;999.90;;
30068;SDS011;16894;49.456;10.644;2023-08-06T12:12:33;1999.90;;;999.90;;
30068;SDS011;16894;49.456;10.644;2023-08-06T12:15:00;1999.90;;;999.90;;
30068;SDS011;16894;49.456;10.644;2023-08-06T12:17:26;1999.90;;;999.90;;
30068;SDS011;16894;49.456;10.644;2023-08-06T12:19:52;1999.90;;;999.90;;
30068;SDS011;16894;49.456;10.644;2023-08-06T12:22:17;1999.90;;;999.90;;
30068;SDS011;16894;49.456;10.644;2023-08-06T12:24:44;1999.90;;;999.90;;
30068;SDS011;16894;49.456;10.644;2023-08-06T12:27:11;1999.90;;;999.90;;
30068;SDS011;16894;49.456;10.644;2023-08-06T12:29:37;1999.90;;;999.90;;
30068;SDS011;16894;49.456;10.644;2023-08-06T12:32:07;1999.90;;;999.90;;
30068;SDS011;16894;49.456;10.644;2023-08-06T12:34:33;1999.90;;;999.90;;
30068;SDS011;16894;49.456;10.644;2023-08-06T12:36:59;1999.90;;;999.90;;
30068;SDS011;16894;49.456;10.644;2023-08-06T12:39:25;1999.90;;;885.38;;
30068;SDS011;16894;49.456;10.644;2023-08-06T12:41:53;1999.90;;;999.90;;
30068;SDS011;16894;49.456;10.644;2023-08-06T12:44:19;1999.90;;;999.90;;
30068;SDS011;16894;49.456;10.644;2023-08-06T12:46:45;1999.90;;;999.90;;
30068;SDS011;16894;49.456;10.644;2023-08-06T12:49:11;1999.90;;;999.90;;
30068;SDS011;16894;49.456;10.644;2023-08-06T12:51:36;1999.90;;;999.90;;
30068;SDS011;16894;49.456;10.644;2023-08-06T12:54:02;1999.90;;;999.90;;
30068;SDS011;16894;49.456;10.644;2023-08-06T12:56:28;1999.90;;;999.90;;
30068;SDS011;16894;49.456;10.644;2023-08-06T12:58:54;1999.90;;;999.90;;
30068;SDS011;16894;49.456;10.644;2023-08-06T13:01:19;1999.90;;;999.90;;
30068;SDS011;16894;49.456;10.644;2023-08-06T13:03:45;1226.60;;;549.20;;
30068;SDS011;16894;49.456;10.644;2023-08-06T13:06:11;1571.55;;;647.03;;
30068;SDS011;16894;49.456;10.644;2023-08-06T13:08:37;1914.07;;;999.90;;
30068;SDS011;16894;49.456;10.644;2023-08-06T13:11:03;1445.05;;;999.90;;
30068;SDS011;16894;49.456;10.644;2023-08-06T13:15:55;757.50;;;694.45;;
30068;SDS011;16894;49.456;10.644;2023-08-06T13:18:21;439.00;;;408.67;;
30068;SDS011;16894;49.456;10.644;2023-08-06T13:20:47;607.95;;;518.38;;
30068;SDS011;16894;49.456;10.644;2023-08-06T13:23:14;267.88;;;247.32;;
30068;SDS011;16894;49.456;10.644;2023-08-06T13:25:41;151.68;;;142.18;;
30068;SDS011;16894;49.456;10.644;2023-08-06T13:28:07;99.88;;;93.75;;
30068;SDS011;16894;49.456;10.644;2023-08-06T13:30:33;95.38;;;87.32;;
30068;SDS011;16894;49.456;10.644;2023-08-06T13:33:00;51.10;;;48.05;;
30068;SDS011;16894;49.456;10.644;2023-08-06T13:35:26;54.90;;;50.25;;
30068;SDS011;16894;49.456;10.644;2023-08-06T13:37:52;58.33;;;54.13;;
30068;SDS011;16894;49.456;10.644;2023-08-06T13:40:19;29.65;;;27.88;;
30068;SDS011;16894;49.456;10.644;2023-08-06T13:42:45;30.58;;;28.60;;
30068;SDS011;16894;49.456;10.644;2023-08-06T13:45:10;39.37;;;36.97;;
30068;SDS011;16894;49.456;10.644;2023-08-06T13:47:36;45.13;;;42.23;;
30068;SDS011;16894;49.456;10.644;2023-08-06T13:50:02;52.33;;;49.17;;
30068;SDS011;16894;49.456;10.644;2023-08-06T13:54:54;58.95;;;54.20;;
30068;SDS011;16894;49.456;10.644;2023-08-06T13:57:19;36.40;;;34.07;;
30068;SDS011;16894;49.456;10.644;2023-08-06T13:59:45;38.43;;;36.13;;
30068;SDS011;16894;49.456;10.644;2023-08-06T14:02:11;37.23;;;35.10;;
30068;SDS011;16894;49.456;10.644;2023-08-06T14:04:36;35.83;;;33.60;;
30068;SDS011;16894;49.456;10.644;2023-08-06T14:07:02;31.55;;;29.73;;
30068;SDS011;16894;49.456;10.644;2023-08-06T14:09:31;24.25;;;22.67;;
30068;SDS011;16894;49.456;10.644;2023-08-06T14:11:57;36.15;;;33.20;;
30068;SDS011;16894;49.456;10.644;2023-08-06T14:14:23;28.95;;;27.30;;
30068;SDS011;16894;49.456;10.644;2023-08-06T14:16:54;58.63;;;54.88;;
30068;SDS011;16894;49.456;10.644;2023-08-06T14:19:20;66.55;;;62.50;;
30068;SDS011;16894;49.456;10.644;2023-08-06T14:21:46;131.80;;;95.97;;
30068;SDS011;16894;49.456;10.644;2023-08-06T14:24:17;66.40;;;61.65;;
30068;SDS011;16894;49.456;10.644;2023-08-06T14:26:42;72.82;;;65.28;;
30068;SDS011;16894;49.456;10.644;2023-08-06T14:29:08;54.17;;;50.87;;
30068;SDS011;16894;49.456;10.644;2023-08-06T14:31:34;62.90;;;59.07;;
30068;SDS011;16894;49.456;10.644;2023-08-06T14:33:59;87.43;;;80.20;;
30068;SDS011;16894;49.456;10.644;2023-08-06T14:36:25;69.33;;;64.67;;